Kittrell, North Carolina
Current Conditions -  °F | °C
As of 7:15 PM on Friday 28 Nov 2014 (Local Time) from KHNZ Reporting Station
Clear Clear  
Wind Chill: 32°   Ceiling: Unl
Heat Index: 32°   Visibility: 10mi
Dew Point: 26°   Wind: 0mph
Humidity: 76%   Direction: NA
Pressure: 30.29"   Gusts: NA
Location:  36.22°N, 78.44°W
Report Text: KHNZ 290015Z AUTO 00000KT 10SM CLR 00/M04 A3029 RMK AO2 P0001 T00011036
Loading
Personal Weather Stations






























Interactive Weather Map New forecast layout! Learn more

10-Day Weather Forecast

Advertisements
Track Severe Weather on mobile